createdAt,value
2022-12-15T00:02:18.031Z,100.00
2022-12-15T00:05:03.341Z,100.00
2022-12-15T00:07:48.477Z,100.00
2022-12-15T00:10:34.201Z,100.00
2022-12-15T00:13:19.563Z,100.00
2022-12-15T00:16:07.860Z,100.00
2022-12-15T00:18:53.577Z,100.00
2022-12-15T00:21:39.096Z,100.00
2022-12-15T00:24:24.980Z,100.00
2022-12-15T00:27:10.341Z,100.00
2022-12-15T00:29:55.572Z,100.00
2022-12-15T00:32:42.063Z,100.00
2022-12-15T00:35:27.730Z,100.00
2022-12-15T00:38:13.021Z,100.00
2022-12-15T00:40:39.840Z,100.00
2022-12-15T00:43:07.023Z,100.00
2022-12-15T00:45:52.051Z,100.00
2022-12-15T00:48:18.753Z,100.00
2022-12-15T00:50:54.630Z,100.00
2022-12-15T00:53:42.594Z,100.00
2022-12-15T00:56:28.793Z,100.00
2022-12-15T00:59:14.936Z,100.00
2022-12-15T01:02:00.920Z,100.00
2022-12-15T01:04:48.446Z,100.00
2022-12-15T01:07:33.916Z,100.00
2022-12-15T01:10:19.512Z,100.00
2022-12-15T01:13:06.052Z,100.00
2022-12-15T01:15:53.817Z,100.00
2022-12-15T01:18:39.198Z,100.00
2022-12-15T01:21:08.614Z,100.00
2022-12-15T01:23:37.625Z,100.00
2022-12-15T01:26:06.014Z,100.00
2022-12-15T01:28:32.834Z,100.00
2022-12-15T01:30:59.616Z,100.00
2022-12-15T01:33:26.413Z,100.00
2022-12-15T01:36:01.459Z,100.00
2022-12-15T01:38:29.340Z,100.00
2022-12-15T01:41:07.897Z,100.00
2022-12-15T01:43:38.853Z,100.00
2022-12-15T01:46:12.842Z,100.00
2022-12-15T01:48:47.162Z,100.00
2022-12-15T01:51:22.191Z,100.00
2022-12-15T01:54:18.153Z,100.00
2022-12-15T01:56:50.232Z,100.00
2022-12-15T01:59:23.852Z,100.00
2022-12-15T02:01:50.786Z,100.00
2022-12-15T02:04:22.089Z,100.00
2022-12-15T02:06:49.019Z,100.00
2022-12-15T02:09:17.756Z,100.00
2022-12-15T02:11:58.630Z,100.00
2022-12-15T02:14:51.661Z,100.00
2022-12-15T02:17:45.040Z,100.00
2022-12-15T02:20:14.771Z,100.00
2022-12-15T02:23:25.941Z,100.00
2022-12-15T02:26:17.997Z,100.00
2022-12-15T02:29:05.892Z,100.00
2022-12-15T02:31:52.099Z,100.00
2022-12-15T02:34:29.755Z,100.00
2022-12-15T02:37:04.133Z,100.00
2022-12-15T02:39:31.172Z,100.00
2022-12-15T02:41:58.014Z,100.00
2022-12-15T02:44:31.325Z,100.00
2022-12-15T02:47:47.852Z,100.00
2022-12-15T02:51:21.231Z,100.00
2022-12-15T02:54:23.596Z,100.00
2022-12-15T02:57:27.427Z,100.00
2022-12-15T03:00:09.834Z,100.00
2022-12-15T03:02:40.522Z,100.00
2022-12-15T03:05:08.698Z,100.00
2022-12-15T03:07:35.569Z,100.00
2022-12-15T03:10:05.577Z,100.00
2022-12-15T03:12:32.348Z,100.00
2022-12-15T03:14:59.090Z,100.00
2022-12-15T03:17:25.880Z,100.00
2022-12-15T03:19:52.670Z,100.00
2022-12-15T03:22:19.586Z,100.00
2022-12-15T03:24:46.440Z,100.00
2022-12-15T03:27:13.144Z,100.00
2022-12-15T03:29:40.189Z,100.00
2022-12-15T03:32:07.248Z,100.00
2022-12-15T03:34:34.187Z,100.00
2022-12-15T03:37:01.187Z,100.00
2022-12-15T03:39:28.002Z,100.00
2022-12-15T03:41:54.715Z,100.00
2022-12-15T03:44:21.520Z,100.00
2022-12-15T03:46:48.262Z,100.00
2022-12-15T03:49:14.981Z,100.00
2022-12-15T03:51:41.712Z,100.00
2022-12-15T03:54:08.987Z,100.00
2022-12-15T03:56:35.699Z,100.00
2022-12-15T03:59:03.348Z,100.00
2022-12-15T04:01:33.534Z,100.00
2022-12-15T04:04:01.816Z,100.00
2022-12-15T04:06:30.265Z,100.00
2022-12-15T04:08:56.971Z,100.00
2022-12-15T04:11:23.717Z,100.00
2022-12-15T04:13:50.445Z,100.00
2022-12-15T04:16:20.175Z,100.00
2022-12-15T04:19:07.661Z,100.00
2022-12-15T04:21:34.611Z,100.00
2022-12-15T04:24:19.798Z,100.00
2022-12-15T04:27:04.982Z,100.00
2022-12-15T04:29:50.422Z,100.00
2022-12-15T04:32:35.904Z,100.00
2022-12-15T04:35:21.476Z,100.00
2022-12-15T04:38:06.851Z,100.00
2022-12-15T04:40:52.424Z,100.00
2022-12-15T04:43:38.045Z,100.00
2022-12-15T04:46:23.458Z,100.00
2022-12-15T04:49:08.995Z,100.00
2022-12-15T04:51:54.463Z,100.00
2022-12-15T04:54:39.616Z,100.00
2022-12-15T04:57:25.533Z,100.00
2022-12-15T05:00:10.750Z,100.00
2022-12-15T05:02:56.111Z,100.00
2022-12-15T05:05:41.593Z,100.00
2022-12-15T05:08:26.906Z,100.00
2022-12-15T05:11:12.064Z,100.00
2022-12-15T05:13:57.341Z,100.00
2022-12-15T05:16:42.629Z,100.00
2022-12-15T05:19:27.885Z,100.00
2022-12-15T05:22:13.148Z,100.00
2022-12-15T05:24:58.379Z,100.00
2022-12-15T05:27:43.768Z,100.00
2022-12-15T05:30:29.295Z,100.00
2022-12-15T05:32:56.016Z,100.00
2022-12-15T05:35:22.806Z,100.00
2022-12-15T05:37:49.520Z,100.00
2022-12-15T05:40:16.374Z,100.00
2022-12-15T05:42:43.094Z,100.00
2022-12-15T05:45:13.057Z,100.00
2022-12-15T05:47:39.784Z,100.00
2022-12-15T05:50:07.421Z,100.00
2022-12-15T05:52:34.177Z,100.00
2022-12-15T05:55:00.893Z,100.00
2022-12-15T05:57:27.613Z,100.00
2022-12-15T05:59:54.308Z,100.00
2022-12-15T06:02:21.381Z,100.00
2022-12-15T06:04:48.174Z,100.00
2022-12-15T06:07:14.991Z,100.00
2022-12-15T06:09:41.733Z,100.00
2022-12-15T06:12:08.468Z,100.00
2022-12-15T06:14:36.364Z,100.00
2022-12-15T06:17:03.274Z,100.00
2022-12-15T06:19:30.169Z,100.00
2022-12-15T06:21:56.921Z,100.00
2022-12-15T06:24:24.809Z,100.00
2022-12-15T06:26:51.673Z,100.00
2022-12-15T06:29:18.782Z,100.00
2022-12-15T06:31:45.611Z,100.00
2022-12-15T06:34:15.280Z,100.00
2022-12-15T06:36:43.084Z,100.00
2022-12-15T06:39:14.003Z,100.00
2022-12-15T06:41:41.878Z,100.00
2022-12-15T06:44:13.174Z,100.00
2022-12-15T06:46:39.942Z,100.00
2022-12-15T06:49:08.256Z,100.00
2022-12-15T06:51:35.110Z,100.00
2022-12-15T06:54:01.849Z,100.00
2022-12-15T06:56:36.297Z,100.00
2022-12-15T06:59:06.442Z,100.00
2022-12-15T07:01:34.292Z,100.00
2022-12-15T07:04:03.221Z,100.00
2022-12-15T07:06:36.887Z,100.00
2022-12-15T07:09:08.581Z,100.00
2022-12-15T07:11:35.788Z,100.00
2022-12-15T07:14:02.664Z,100.00
2022-12-15T07:16:29.477Z,100.00
2022-12-15T07:18:56.262Z,100.00
2022-12-15T07:21:23.009Z,100.00
2022-12-15T07:23:55.224Z,100.00
2022-12-15T07:26:23.879Z,100.00
2022-12-15T07:28:50.812Z,100.00
2022-12-15T07:31:18.040Z,100.00
2022-12-15T07:33:45.222Z,100.00
2022-12-15T07:36:12.343Z,100.00
2022-12-15T07:38:39.284Z,100.00
2022-12-15T07:41:08.575Z,100.00
2022-12-15T07:43:36.615Z,100.00
2022-12-15T07:46:04.843Z,100.00
2022-12-15T07:48:32.422Z,100.00
2022-12-15T07:51:07.242Z,100.00
2022-12-15T07:53:37.333Z,100.00
2022-12-15T07:56:08.530Z,100.00
2022-12-15T07:58:37.135Z,100.00
2022-12-15T08:01:07.799Z,100.00
2022-12-15T08:03:36.718Z,99.18
2022-12-15T08:06:10.353Z,98.51
2022-12-15T08:08:37.862Z,98.40
2022-12-15T08:11:06.504Z,97.95
2022-12-15T08:16:24.862Z,97.05
2022-12-15T08:18:51.682Z,97.45
2022-12-15T08:21:18.483Z,97.75
2022-12-15T08:23:45.550Z,97.53
2022-12-15T08:26:16.521Z,97.68
2022-12-15T08:28:44.133Z,96.67
2022-12-15T08:31:17.479Z,96.97
2022-12-15T08:33:45.643Z,96.96
2022-12-15T08:36:15.052Z,96.37
2022-12-15T08:38:44.004Z,95.70
2022-12-15T08:41:23.266Z,95.77
2022-12-15T08:43:51.899Z,96.69
2022-12-15T08:46:26.069Z,96.57
2022-12-15T08:48:53.326Z,96.21
2022-12-15T08:51:21.461Z,95.71
2022-12-15T08:53:49.392Z,96.18
2022-12-15T08:56:19.922Z,96.43
2022-12-15T08:58:48.940Z,96.30
2022-12-15T09:01:23.229Z,96.26
2022-12-15T09:03:55.511Z,95.26
2022-12-15T09:06:34.566Z,94.01
2022-12-15T09:09:07.325Z,94.07
2022-12-15T09:11:34.650Z,94.12
2022-12-15T09:14:01.631Z,94.25
2022-12-15T09:16:28.889Z,94.77
2022-12-15T09:18:59.025Z,94.79
2022-12-15T09:21:29.180Z,95.02
2022-12-15T09:24:03.041Z,94.88
2022-12-15T09:26:34.491Z,94.42
2022-12-15T09:29:02.152Z,94.38
2022-12-15T09:31:36.507Z,94.12
2022-12-15T09:34:03.942Z,94.10
2022-12-15T09:36:32.958Z,93.87
2022-12-15T09:39:02.057Z,94.13
2022-12-15T09:41:32.673Z,94.23
2022-12-15T09:44:06.990Z,94.00
2022-12-15T09:49:28.461Z,93.92
2022-12-15T09:52:10.959Z,94.05
2022-12-15T09:54:39.059Z,94.04
2022-12-15T09:57:16.616Z,94.35
2022-12-15T10:00:25.955Z,94.17
2022-12-15T10:03:08.092Z,93.60
2022-12-15T10:06:16.229Z,92.98
2022-12-15T10:08:55.593Z,92.23
2022-12-15T10:11:44.785Z,93.27
2022-12-15T10:14:29.250Z,93.33
2022-12-15T10:17:28.160Z,92.56
2022-12-15T10:20:23.037Z,92.57
2022-12-15T10:25:36.954Z,92.54
2022-12-15T10:28:26.672Z,93.02
2022-12-15T10:31:18.501Z,92.50
2022-12-15T10:33:54.834Z,92.10
2022-12-15T10:36:21.576Z,91.65
2022-12-15T10:38:50.490Z,91.37
2022-12-15T10:41:26.007Z,92.17
2022-12-15T10:43:54.716Z,91.65
2022-12-15T10:46:32.345Z,91.77
2022-12-15T10:49:06.172Z,91.76
2022-12-15T10:51:56.653Z,92.34
2022-12-15T10:54:27.706Z,91.50
2022-12-15T10:56:56.264Z,91.97
2022-12-15T10:59:35.928Z,92.48
2022-12-15T11:02:24.631Z,92.46
2022-12-15T11:04:58.967Z,92.19
2022-12-15T11:07:46.914Z,91.40
2022-12-15T11:10:50.079Z,91.49
2022-12-15T11:13:22.781Z,91.29
2022-12-15T11:15:54.916Z,91.59
2022-12-15T11:18:22.268Z,91.58
2022-12-15T11:21:03.353Z,91.75
2022-12-15T11:24:01.828Z,91.50
2022-12-15T11:26:45.138Z,91.57
2022-12-15T11:29:37.202Z,92.32
2022-12-15T11:34:51.409Z,91.56
2022-12-15T11:37:37.396Z,90.95
2022-12-15T11:40:39.955Z,90.77
2022-12-15T11:43:50.458Z,91.05
2022-12-15T11:46:17.457Z,91.48
2022-12-15T11:49:06.174Z,91.16
2022-12-15T11:51:42.906Z,91.24
2022-12-15T11:54:44.966Z,91.20
2022-12-15T11:57:31.085Z,91.73
2022-12-15T12:00:19.496Z,91.73
2022-12-15T12:02:57.932Z,92.62
2022-12-15T12:05:38.415Z,92.85
2022-12-15T12:08:08.130Z,92.30
2022-12-15T12:11:18.412Z,91.63
2022-12-15T12:14:09.689Z,91.66
2022-12-15T12:17:20.431Z,91.18
2022-12-15T12:19:55.157Z,91.04
2022-12-15T12:22:24.664Z,91.92
2022-12-15T12:25:01.273Z,91.99
2022-12-15T12:30:46.229Z,92.44
2022-12-15T12:33:45.540Z,92.30
2022-12-15T12:36:16.561Z,92.25
2022-12-15T12:38:57.011Z,92.60
2022-12-15T12:42:16.175Z,92.68
2022-12-15T12:44:42.982Z,92.65
2022-12-15T12:47:22.014Z,92.31
2022-12-15T12:49:55.212Z,92.86
2022-12-15T12:52:30.597Z,92.33
2022-12-15T12:55:00.977Z,91.36
2022-12-15T12:57:43.285Z,91.74
2022-12-15T13:00:29.174Z,92.90
2022-12-15T13:03:13.513Z,93.27
2022-12-15T13:05:41.990Z,92.87
2022-12-15T13:08:08.885Z,92.70
2022-12-15T13:10:40.382Z,93.29
2022-12-15T13:13:18.682Z,93.27
2022-12-15T13:15:51.043Z,93.28
2022-12-15T13:18:22.513Z,93.48
2022-12-15T13:20:54.241Z,93.78
2022-12-15T13:23:23.720Z,93.00
2022-12-15T13:25:56.619Z,92.67
2022-12-15T13:28:44.403Z,92.63
2022-12-15T13:31:21.995Z,92.95
2022-12-15T13:33:51.628Z,92.80
2022-12-15T13:36:37.173Z,93.45
2022-12-15T13:39:12.890Z,93.23
2022-12-15T13:44:51.985Z,93.66
2022-12-15T13:47:29.146Z,93.85
2022-12-15T13:50:07.757Z,93.06
2022-12-15T13:53:17.759Z,93.55
2022-12-15T13:55:51.679Z,93.49
2022-12-15T13:58:20.944Z,93.76
2022-12-15T14:00:58.326Z,93.96
2022-12-15T14:03:26.402Z,94.13
2022-12-15T14:06:00.320Z,94.23
2022-12-15T14:08:30.014Z,93.60
2022-12-15T14:11:16.442Z,93.63
2022-12-15T14:13:52.296Z,93.69
2022-12-15T14:16:23.042Z,94.27
2022-12-15T14:19:16.697Z,93.83
2022-12-15T14:21:58.043Z,94.92
2022-12-15T14:24:44.044Z,95.06
2022-12-15T14:27:30.647Z,94.98
2022-12-15T14:30:33.103Z,94.84
2022-12-15T14:33:07.146Z,94.48
2022-12-15T14:35:42.322Z,94.59
2022-12-15T14:38:21.780Z,94.56
2022-12-15T14:40:51.371Z,94.84
2022-12-15T14:43:32.883Z,95.15
2022-12-15T14:46:23.424Z,95.64
2022-12-15T14:48:57.297Z,95.69
2022-12-15T14:51:27.056Z,95.75
2022-12-15T14:53:54.753Z,95.87
2022-12-15T14:59:20.938Z,96.07
2022-12-15T15:01:58.655Z,96.16
2022-12-15T15:03:04.933Z,92.39
2022-12-15T15:03:09.590Z,92.53
2022-12-15T15:03:13.919Z,92.36
2022-12-15T15:04:34.806Z,96.12
2022-12-15T15:07:05.641Z,95.76
2022-12-15T15:09:40.070Z,95.69
2022-12-15T15:12:21.291Z,95.28
2022-12-15T15:14:53.874Z,95.39
2022-12-15T15:17:31.029Z,96.13
2022-12-15T15:20:01.429Z,96.39
2022-12-15T15:22:42.441Z,96.25
2022-12-15T15:25:39.237Z,96.71
2022-12-15T15:28:22.428Z,96.37
2022-12-15T15:30:56.320Z,96.34
2022-12-15T15:33:25.164Z,96.60
2022-12-15T15:35:56.101Z,95.97
2022-12-15T15:38:29.375Z,96.24
2022-12-15T15:41:35.871Z,96.27
2022-12-15T15:44:02.925Z,96.28
2022-12-15T15:46:35.475Z,96.53
2022-12-15T15:51:32.544Z,96.71
2022-12-15T15:54:06.826Z,96.79
2022-12-15T15:56:34.612Z,96.91
2022-12-15T15:59:12.011Z,97.30
2022-12-15T16:01:38.806Z,97.22
2022-12-15T16:04:09.219Z,97.32
2022-12-15T16:06:36.434Z,97.44
2022-12-15T16:09:07.215Z,97.80
2022-12-15T16:11:35.345Z,97.56
2022-12-15T16:14:03.734Z,97.32
2022-12-15T16:16:33.021Z,97.43
2022-12-15T16:19:00.003Z,97.43
2022-12-15T16:21:28.268Z,97.03
2022-12-15T16:23:57.109Z,97.45
2022-12-15T16:26:32.708Z,97.52
2022-12-15T16:28:59.849Z,97.51
2022-12-15T16:31:41.987Z,97.71
2022-12-15T16:34:09.111Z,98.00
2022-12-15T16:36:36.217Z,97.88
2022-12-15T16:39:04.244Z,98.11
2022-12-15T16:41:31.080Z,98.05
2022-12-15T16:43:58.705Z,97.76
2022-12-15T16:46:26.150Z,97.53
2022-12-15T16:48:53.647Z,97.47
2022-12-15T16:51:39.446Z,97.94
2022-12-15T16:54:07.309Z,98.35
2022-12-15T16:56:34.052Z,98.48
2022-12-15T16:59:31.245Z,97.61
2022-12-15T17:01:48.541Z,98.58
2022-12-15T17:04:16.722Z,98.64
2022-12-15T17:06:43.689Z,98.75
2022-12-15T17:09:19.573Z,98.51
2022-12-15T17:11:46.528Z,98.14
2022-12-15T17:14:13.466Z,98.33
2022-12-15T17:16:40.201Z,98.44
2022-12-15T17:19:06.953Z,98.67
2022-12-15T17:21:41.637Z,98.76
2022-12-15T17:24:16.055Z,99.24
2022-12-15T17:26:44.645Z,99.43
2022-12-15T17:29:20.431Z,99.03
2022-12-15T17:31:47.520Z,99.24
2022-12-15T17:34:27.142Z,99.35
2022-12-15T17:36:54.829Z,99.46
2022-12-15T17:39:23.295Z,99.33
2022-12-15T17:42:05.839Z,99.33
2022-12-15T17:44:38.326Z,99.34
2022-12-15T17:47:07.036Z,99.44
2022-12-15T17:49:37.638Z,99.69
2022-12-15T17:52:31.504Z,99.73
2022-12-15T17:54:58.463Z,99.71
2022-12-15T17:57:25.734Z,99.67
2022-12-15T17:59:53.062Z,99.73
2022-12-15T18:02:19.897Z,99.59
2022-12-15T18:04:46.844Z,99.56
2022-12-15T18:07:23.236Z,99.73
2022-12-15T18:09:51.993Z,99.60
2022-12-15T18:12:27.021Z,99.74
2022-12-15T18:14:56.369Z,99.35
2022-12-15T18:17:24.078Z,99.25
2022-12-15T18:19:50.887Z,99.01
2022-12-15T18:22:23.051Z,99.29
2022-12-15T18:24:52.393Z,99.68
2022-12-15T18:27:28.711Z,99.59
2022-12-15T18:29:59.351Z,99.70
2022-12-15T18:32:29.895Z,99.29
2022-12-15T18:34:56.768Z,99.64
2022-12-15T18:37:25.204Z,99.16
2022-12-15T18:39:52.444Z,99.53
2022-12-15T18:42:21.438Z,98.89
2022-12-15T18:44:51.411Z,98.47
2022-12-15T18:47:22.116Z,98.63
2022-12-15T18:49:49.183Z,98.70
2022-12-15T18:52:22.575Z,98.71
2022-12-15T18:54:51.672Z,98.65
2022-12-15T18:57:38.132Z,98.73
2022-12-15T19:00:24.635Z,98.91
2022-12-15T19:02:57.600Z,98.75
2022-12-15T19:05:30.041Z,98.66
2022-12-15T19:08:10.450Z,98.45
2022-12-15T19:10:46.789Z,98.00
2022-12-15T19:13:16.633Z,97.92
2022-12-15T19:15:44.326Z,98.07
2022-12-15T19:18:38.129Z,98.39
2022-12-15T19:21:43.218Z,98.33
2022-12-15T19:24:44.654Z,98.20
2022-12-15T19:27:20.990Z,98.05
2022-12-15T19:29:53.324Z,98.24
2022-12-15T19:32:20.393Z,97.91
2022-12-15T19:34:47.197Z,98.09
2022-12-15T19:37:29.842Z,98.49
2022-12-15T19:39:59.353Z,98.06
2022-12-15T19:42:35.689Z,97.78
2022-12-15T19:45:14.413Z,97.88
2022-12-15T19:47:41.231Z,98.02
2022-12-15T19:50:45.006Z,98.29
2022-12-15T19:53:15.082Z,97.78
2022-12-15T19:55:42.233Z,97.60
2022-12-15T19:58:29.185Z,98.02
2022-12-15T20:00:59.930Z,98.27
2022-12-15T20:03:29.167Z,98.53
2022-12-15T20:05:58.319Z,98.47
2022-12-15T20:08:29.900Z,98.44
2022-12-15T20:10:56.895Z,98.50
2022-12-15T20:13:23.713Z,98.35
2022-12-15T20:15:50.480Z,98.30
2022-12-15T20:18:17.237Z,97.85
2022-12-15T20:20:47.441Z,98.06
2022-12-15T20:23:23.738Z,98.53
2022-12-15T20:25:50.525Z,98.80
2022-12-15T20:28:22.426Z,99.28
2022-12-15T20:30:50.567Z,99.20
2022-12-15T20:33:18.702Z,98.87
2022-12-15T20:35:48.333Z,98.67
2022-12-15T20:38:32.841Z,98.43
2022-12-15T20:41:02.029Z,98.47
2022-12-15T20:43:31.835Z,98.75
2022-12-15T20:46:11.105Z,98.50
2022-12-15T20:48:38.020Z,98.21
2022-12-15T20:51:09.829Z,98.12
2022-12-15T20:53:37.937Z,98.07
2022-12-15T20:56:06.307Z,98.37
2022-12-15T20:58:40.709Z,97.88
2022-12-15T21:01:23.643Z,97.58
2022-12-15T21:03:54.348Z,97.36
2022-12-15T21:06:22.672Z,97.36
2022-12-15T21:08:50.076Z,97.58
2022-12-15T21:11:22.059Z,97.45
2022-12-15T21:13:50.454Z,97.48
2022-12-15T21:16:26.130Z,97.43
2022-12-15T21:21:49.889Z,97.84
2022-12-15T21:24:26.499Z,98.03
2022-12-15T21:26:53.761Z,98.62
2022-12-15T21:29:25.455Z,98.30
2022-12-15T21:31:52.307Z,97.93
2022-12-15T21:34:19.045Z,97.88
2022-12-15T21:36:50.317Z,98.27
2022-12-15T21:39:34.074Z,98.09
2022-12-15T21:42:12.193Z,98.50
2022-12-15T21:44:38.957Z,98.34
2022-12-15T21:47:47.599Z,98.10
2022-12-15T21:50:15.809Z,98.51
2022-12-15T21:52:43.282Z,97.99
2022-12-15T21:55:26.257Z,97.83
2022-12-15T21:57:53.864Z,97.68
2022-12-15T22:00:22.093Z,98.30
2022-12-15T22:02:51.709Z,98.56
2022-12-15T22:05:25.393Z,98.14
2022-12-15T22:07:52.141Z,98.77
2022-12-15T22:10:19.382Z,98.67
2022-12-15T22:12:58.943Z,98.29
2022-12-15T22:15:26.368Z,97.69
2022-12-15T22:17:53.155Z,97.54
2022-12-15T22:20:23.794Z,97.52
2022-12-15T22:22:51.277Z,97.36
2022-12-15T22:25:24.273Z,97.02
2022-12-15T22:27:51.647Z,96.90
2022-12-15T22:30:25.118Z,97.22
2022-12-15T22:32:52.509Z,97.35
2022-12-15T22:35:24.520Z,97.84
2022-12-15T22:37:56.199Z,97.95
2022-12-15T22:40:24.322Z,97.90
2022-12-15T22:42:57.741Z,98.15
2022-12-15T22:45:24.698Z,98.49
2022-12-15T22:47:53.307Z,98.26
2022-12-15T22:50:26.196Z,98.98
2022-12-15T22:52:53.085Z,99.00
2022-12-15T22:55:23.240Z,98.46
2022-12-15T22:58:10.389Z,98.41
2022-12-15T23:00:37.855Z,98.63
2022-12-15T23:03:07.694Z,99.17
2022-12-15T23:05:34.589Z,99.10
2022-12-15T23:08:01.358Z,99.16
2022-12-15T23:10:46.976Z,99.34
2022-12-15T23:13:13.718Z,99.45
2022-12-15T23:15:59.489Z,99.03
2022-12-15T23:18:26.329Z,99.20
2022-12-15T23:20:54.049Z,99.73
2022-12-15T23:23:21.881Z,99.43
2022-12-15T23:25:48.631Z,99.25
2022-12-15T23:28:15.384Z,99.56
2022-12-15T23:30:42.394Z,99.40
2022-12-15T23:33:09.130Z,99.65
2022-12-15T23:35:39.795Z,99.72
2022-12-15T23:38:06.578Z,99.92
2022-12-15T23:40:33.361Z,99.75
2022-12-15T23:43:00.068Z,99.43
2022-12-15T23:45:26.874Z,99.72
2022-12-15T23:47:53.594Z,100.00
2022-12-15T23:50:20.898Z,100.00
2022-12-15T23:52:51.270Z,100.00
2022-12-15T23:55:19.274Z,100.00
2022-12-15T23:57:46.544Z,100.00
